createdAt,value
2017-04-22T00:00:03.896Z,78.83
2017-04-22T00:00:29.977Z,78.7
2017-04-22T00:00:56.061Z,78.64
2017-04-22T00:01:22.190Z,79.41
2017-04-22T00:01:48.373Z,79.12
2017-04-22T00:02:14.497Z,78.89
2017-04-22T00:02:40.581Z,79.17
2017-04-22T00:03:06.685Z,79.46
2017-04-22T00:03:32.814Z,79.65
2017-04-22T00:03:58.897Z,79.46
2017-04-22T00:04:25.031Z,79.65
2017-04-22T00:04:51.138Z,79.94
2017-04-22T00:05:17.260Z,80.61
2017-04-22T00:05:43.341Z,81.09
2017-04-22T00:06:09.581Z,80.9
2017-04-22T00:06:35.661Z,80.8
2017-04-22T00:07:01.744Z,81.27
2017-04-22T00:07:27.852Z,80.8
2017-04-22T00:07:53.937Z,80.8
2017-04-22T00:08:20.062Z,80.99
2017-04-22T00:08:46.170Z,81.27
2017-04-22T00:09:12.277Z,80.9
2017-04-22T00:09:38.356Z,81.09
2017-04-22T00:10:04.458Z,80.55
2017-04-22T00:10:30.569Z,81.27
2017-04-22T00:10:56.649Z,80.99
2017-04-22T00:11:22.800Z,80.9
2017-04-22T00:11:48.905Z,81.09
2017-04-22T00:12:15.011Z,80.9
2017-04-22T00:12:41.116Z,80.41
2017-04-22T00:13:07.315Z,80.22
2017-04-22T00:13:33.446Z,80.22
2017-04-22T00:13:59.872Z,80.32
2017-04-22T00:14:26.019Z,81.18
2017-04-22T00:14:52.130Z,81.09
2017-04-22T00:15:18.258Z,80.9
2017-04-22T00:15:44.343Z,80.9
2017-04-22T00:16:10.447Z,81.09
2017-04-22T00:16:36.802Z,80.9
2017-04-22T00:17:02.910Z,80.99
2017-04-22T00:17:29.018Z,80.61
2017-04-22T00:17:55.100Z,80.8
2017-04-22T00:18:21.254Z,80.41
2017-04-22T00:18:47.383Z,80.22
2017-04-22T00:19:13.487Z,80.41
2017-04-22T00:19:39.573Z,80.61
2017-04-22T00:20:05.654Z,80.9
2017-04-22T00:20:31.737Z,81.27
2017-04-22T00:20:57.822Z,81.27
2017-04-22T00:21:23.906Z,80.99
2017-04-22T00:21:50.014Z,80.41
2017-04-22T00:22:16.172Z,80.41
2017-04-22T00:22:42.257Z,80.04
2017-04-22T00:23:08.364Z,79.75
2017-04-22T00:23:34.473Z,80.04
2017-04-22T00:24:00.554Z,80.32
2017-04-22T00:24:26.660Z,80.13
2017-04-22T00:24:52.743Z,79.75
2017-04-22T00:25:18.848Z,80.41
2017-04-22T00:25:44.931Z,81.09
2017-04-22T00:26:11.038Z,81.37
2017-04-22T00:26:37.143Z,81.47
2017-04-22T00:27:03.248Z,81.56
2017-04-22T00:27:29.352Z,81.56
2017-04-22T00:27:55.458Z,81.85
2017-04-22T00:28:21.562Z,81.56
2017-04-22T00:28:47.689Z,81.76
2017-04-22T00:29:13.840Z,81.33
2017-04-22T00:29:39.947Z,81.33
2017-04-22T00:30:06.030Z,81.62
2017-04-22T00:30:32.112Z,81.71
2017-04-22T00:30:58.195Z,81.81
2017-04-22T00:31:24.304Z,81.81
2017-04-22T00:31:50.387Z,81.71
2017-04-22T00:32:16.625Z,81.81
2017-04-22T00:32:42.730Z,82.19
2017-04-22T00:33:08.846Z,82
2017-04-22T00:33:34.940Z,83.05
2017-04-22T00:34:01.070Z,82.76
2017-04-22T00:34:27.175Z,82.57
2017-04-22T00:34:53.306Z,82.29
2017-04-22T00:35:19.410Z,82.86
2017-04-22T00:35:45.515Z,82.67
2017-04-22T00:36:11.621Z,82.57
2017-04-22T00:36:37.726Z,83.34
2017-04-22T00:37:03.831Z,82.67
2017-04-22T00:37:29.914Z,83.05
2017-04-22T00:37:56.049Z,82.86
2017-04-22T00:38:22.181Z,82.67
2017-04-22T00:38:48.335Z,82.95
2017-04-22T00:39:14.511Z,82.95
2017-04-22T00:39:40.665Z,82.76
2017-04-22T00:40:06.751Z,83.14
2017-04-22T00:40:32.894Z,82.86
2017-04-22T00:40:58.985Z,82.76
2017-04-22T00:41:25.186Z,82.95
2017-04-22T00:41:51.341Z,82.95
2017-04-22T00:42:17.468Z,83.14
2017-04-22T00:42:43.584Z,83.05
2017-04-22T00:43:09.706Z,82.86
2017-04-22T00:43:35.864Z,82.76
2017-04-22T00:44:01.995Z,82.63
2017-04-22T00:44:28.144Z,83.11
2017-04-22T00:44:54.386Z,83.01
2017-04-22T00:45:20.516Z,82.82
2017-04-22T00:45:46.619Z,83.01
2017-04-22T00:46:12.714Z,83.11
2017-04-22T00:46:38.822Z,82.91
2017-04-22T00:47:04.905Z,83.2
2017-04-22T00:47:31.040Z,83.48
2017-04-22T00:47:57.161Z,83.29
2017-04-22T00:48:23.315Z,83.29
2017-04-22T00:48:49.469Z,83.2
2017-04-22T00:49:15.577Z,82.72
2017-04-22T00:49:41.704Z,83.2
2017-04-22T00:50:07.857Z,83.39
2017-04-22T00:50:33.967Z,82.43
2017-04-22T00:51:00.046Z,83.01
2017-04-22T00:51:26.133Z,82.53
2017-04-22T00:51:52.215Z,81.86
2017-04-22T00:52:18.317Z,82.15
2017-04-22T00:52:44.422Z,82.34
2017-04-22T00:53:10.533Z,81.15
2017-04-22T00:53:36.640Z,80.3
2017-04-22T00:54:02.894Z,80.68
2017-04-22T00:54:29.002Z,80.87
2017-04-22T00:54:55.085Z,81.06
2017-04-22T00:55:21.191Z,80.96
2017-04-22T00:55:47.298Z,80.77
2017-04-22T00:56:13.382Z,80.68
2017-04-22T00:56:39.508Z,80.3
2017-04-22T00:57:05.596Z,80.3
2017-04-22T00:57:31.720Z,80.77
2017-04-22T00:57:57.851Z,81.06
2017-04-22T00:58:24.000Z,80.2
2017-04-22T00:58:50.107Z,79.72
2017-04-22T00:59:16.210Z,79.82
2017-04-22T00:59:42.298Z,79.44
2017-04-22T01:00:08.420Z,79.53
2017-04-22T01:00:34.527Z,79.72
2017-04-22T01:01:00.607Z,79.82
2017-04-22T01:01:26.693Z,79.72
2017-04-22T01:01:52.799Z,79.06
2017-04-22T01:02:18.906Z,77.72
2017-04-22T01:02:44.991Z,77.91
2017-04-22T01:03:11.072Z,78.01
2017-04-22T01:03:37.203Z,78.58
2017-04-22T01:04:03.334Z,79.06
2017-04-22T01:04:29.461Z,79.82
2017-04-22T01:04:55.587Z,79.63
2017-04-22T01:05:21.690Z,79.63
2017-04-22T01:05:47.800Z,80.39
2017-04-22T01:06:13.930Z,79.44
2017-04-22T01:06:40.010Z,77.72
2017-04-22T01:07:06.091Z,77.72
2017-04-22T01:07:32.221Z,77.25
2017-04-22T01:07:58.304Z,77.62
2017-04-22T01:08:24.436Z,77.62
2017-04-22T01:08:50.540Z,77.82
2017-04-22T01:09:16.648Z,76.39
2017-04-22T01:09:42.757Z,76.2
2017-04-22T01:10:08.863Z,76.29
2017-04-22T01:10:34.946Z,75.91
2017-04-22T01:11:01.075Z,76.67
2017-04-22T01:11:27.178Z,76.29
2017-04-22T01:11:53.281Z,76.01
2017-04-22T01:12:19.424Z,76.1
2017-04-22T01:12:45.576Z,76.39
2017-04-22T01:13:11.684Z,76.57
2017-04-22T01:13:37.814Z,76.57
2017-04-22T01:14:03.943Z,76.48
2017-04-22T01:14:30.083Z,76.67
2017-04-22T01:14:56.188Z,76.48
2017-04-22T01:15:22.271Z,75.62
2017-04-22T01:15:48.378Z,75.05
2017-04-22T01:16:14.463Z,74.96
2017-04-22T01:16:40.568Z,74.67
2017-04-22T01:17:06.649Z,74.48
2017-04-22T01:17:32.754Z,74.67
2017-04-22T01:17:58.862Z,74.63
2017-04-22T01:18:25.038Z,74.54
2017-04-22T01:18:51.157Z,74.44
2017-04-22T01:19:17.266Z,74.63
2017-04-22T01:19:43.352Z,74.82
2017-04-22T01:20:09.635Z,74.44
2017-04-22T01:20:35.717Z,74.92
2017-04-22T01:21:01.797Z,75.15
2017-04-22T01:21:27.877Z,75.05
2017-04-22T01:21:53.961Z,75.15
2017-04-22T01:22:20.045Z,75.15
2017-04-22T01:22:46.149Z,75.24
2017-04-22T01:23:12.234Z,75.24
2017-04-22T01:23:38.314Z,74.57
2017-04-22T01:24:04.467Z,74.48
2017-04-22T01:24:30.620Z,74.57
2017-04-22T01:24:56.723Z,74.67
2017-04-22T01:25:22.829Z,74.48
2017-04-22T01:25:49.008Z,74.67
2017-04-22T01:26:15.087Z,74.48
2017-04-22T01:26:41.173Z,74.38
2017-04-22T01:27:07.257Z,74.01
2017-04-22T01:27:33.362Z,74.48
2017-04-22T01:27:59.489Z,74.19
2017-04-22T01:28:25.637Z,74.01
2017-04-22T01:28:51.739Z,73.72
2017-04-22T01:29:17.869Z,73.33
2017-04-22T01:29:43.979Z,73.21
2017-04-22T01:30:10.159Z,73.11
2017-04-22T01:30:36.262Z,72.82
2017-04-22T01:31:02.344Z,73.11
2017-04-22T01:31:28.473Z,73.96
2017-04-22T01:31:54.559Z,73.77
2017-04-22T01:32:20.641Z,73.68
2017-04-22T01:32:46.790Z,73.68
2017-04-22T01:33:12.916Z,73.87
2017-04-22T01:33:39.065Z,74.16
2017-04-22T01:34:05.217Z,74.16
2017-04-22T01:34:31.346Z,74.25
2017-04-22T01:34:57.475Z,74.44
2017-04-22T01:35:23.601Z,74.54
2017-04-22T01:35:49.706Z,74.92
2017-04-22T01:36:15.814Z,74.92
2017-04-22T01:36:41.920Z,74.44
2017-04-22T01:37:08.075Z,74.35
2017-04-22T01:37:34.159Z,74.44
2017-04-22T01:38:00.286Z,74.35
2017-04-22T01:38:26.390Z,74.92
2017-04-22T01:38:52.498Z,74.63
2017-04-22T01:39:18.603Z,74.35
2017-04-22T01:39:44.730Z,74.25
2017-04-22T01:40:10.833Z,73.58
2017-04-22T01:40:37.019Z,73.68
2017-04-22T01:41:03.101Z,74.44
2017-04-22T01:41:29.183Z,73.96
2017-04-22T01:41:55.264Z,74.5
2017-04-22T01:42:21.372Z,74.12
2017-04-22T01:42:47.481Z,74.6
2017-04-22T01:43:13.634Z,74.69
2017-04-22T01:43:39.737Z,74.98
2017-04-22T01:44:05.874Z,75.16
2017-04-22T01:44:31.977Z,75.11
2017-04-22T01:44:58.148Z,75.87
2017-04-22T01:45:24.250Z,75.96
2017-04-22T01:45:50.335Z,76.35
2017-04-22T01:46:16.438Z,75.68
2017-04-22T01:46:42.523Z,75.87
2017-04-22T01:47:08.628Z,75.78
2017-04-22T01:47:34.794Z,75.68
2017-04-22T01:48:00.901Z,75.96
2017-04-22T01:48:27.029Z,75.96
2017-04-22T01:48:53.112Z,75.87
2017-04-22T01:49:19.261Z,75.68
2017-04-22T01:49:45.401Z,76.06
2017-04-22T01:50:11.484Z,76.25
2017-04-22T01:50:37.611Z,75.3
2017-04-22T01:51:03.713Z,74.82
2017-04-22T01:51:29.819Z,75.11
2017-04-22T01:51:55.949Z,75.11
2017-04-22T01:52:22.029Z,75.11
2017-04-22T01:52:48.137Z,75.11
2017-04-22T01:53:14.241Z,75.3
2017-04-22T01:53:40.325Z,75.87
2017-04-22T01:54:06.429Z,75.78
2017-04-22T01:54:32.536Z,75.59
2017-04-22T01:54:58.639Z,75.96
2017-04-22T01:55:24.721Z,75.4
2017-04-22T01:55:50.853Z,75.68
2017-04-22T01:56:17.002Z,76.16
2017-04-22T01:56:43.088Z,76.35
2017-04-22T01:57:09.217Z,75.96
2017-04-22T01:57:35.343Z,75.96
2017-04-22T01:58:01.426Z,75.78
2017-04-22T01:58:27.532Z,75.96
2017-04-22T01:58:53.661Z,75.87
2017-04-22T01:59:19.790Z,75.87
2017-04-22T01:59:45.895Z,76.06
2017-04-22T02:00:12.002Z,75.87
2017-04-22T02:00:38.110Z,76.16
2017-04-22T02:01:04.224Z,76.35
2017-04-22T02:01:30.348Z,75.96
2017-04-22T02:01:56.432Z,75.87
2017-04-22T02:02:22.539Z,76.16
2017-04-22T02:02:48.646Z,75.78
2017-04-22T02:03:14.777Z,76.35
2017-04-22T02:03:40.859Z,76.35
2017-04-22T02:04:06.966Z,76.16
2017-04-22T02:04:33.130Z,76.16
2017-04-22T02:04:59.280Z,76.25
2017-04-22T02:05:25.359Z,76.16
2017-04-22T02:05:51.444Z,76.44
2017-04-22T02:06:17.525Z,75.87
2017-04-22T02:06:43.607Z,76.44
2017-04-22T02:07:09.691Z,76.06
2017-04-22T02:07:35.822Z,76.64
2017-04-22T02:08:01.996Z,76.64
2017-04-22T02:08:28.124Z,76.16
2017-04-22T02:08:54.251Z,76.54
2017-04-22T02:09:20.379Z,76.64
2017-04-22T02:09:46.485Z,76.16
2017-04-22T02:10:12.615Z,76.35
2017-04-22T02:10:38.723Z,75.96
2017-04-22T02:11:04.887Z,75.68
2017-04-22T02:11:30.989Z,75.96
2017-04-22T02:11:57.071Z,76.16
2017-04-22T02:12:23.244Z,76.44
2017-04-22T02:12:49.370Z,76.64
2017-04-22T02:13:15.476Z,76.35
2017-04-22T02:13:41.558Z,76.35
2017-04-22T02:14:07.684Z,76.16
2017-04-22T02:14:33.792Z,76.35
2017-04-22T02:14:59.874Z,76.06
2017-04-22T02:15:25.956Z,77.2
2017-04-22T02:15:52.061Z,76.82
2017-04-22T02:16:18.141Z,77.49
2017-04-22T02:16:44.222Z,77.4
2017-04-22T02:17:10.328Z,76.64
2017-04-22T02:17:36.428Z,76.79
2017-04-22T02:18:02.537Z,77.07
2017-04-22T02:18:28.664Z,77.17
2017-04-22T02:18:54.766Z,77.17
2017-04-22T02:19:20.877Z,77.11
2017-04-22T02:19:46.980Z,76.73
2017-04-22T02:20:13.082Z,76.64
2017-04-22T02:20:39.162Z,76.73
2017-04-22T02:21:05.243Z,76.82
2017-04-22T02:21:31.346Z,76.82
2017-04-22T02:21:57.431Z,76.54
2017-04-22T02:22:23.537Z,76.44
2017-04-22T02:22:49.617Z,76.82
2017-04-22T02:23:15.723Z,77.01
2017-04-22T02:23:41.826Z,76.54
2017-04-22T02:24:07.954Z,77.11
2017-04-22T02:24:34.060Z,76.73
2017-04-22T02:25:00.164Z,77.01
2017-04-22T02:25:26.272Z,76.54
2017-04-22T02:25:52.355Z,76.82
2017-04-22T02:26:18.460Z,76.73
2017-04-22T02:26:44.562Z,76.44
2017-04-22T02:27:10.641Z,76.73
2017-04-22T02:27:36.724Z,76.92
2017-04-22T02:28:02.830Z,77.2
2017-04-22T02:28:28.958Z,76.64
2017-04-22T02:28:55.061Z,76.73
2017-04-22T02:29:21.214Z,77.01
2017-04-22T02:29:47.294Z,76.82
2017-04-22T02:30:13.402Z,76.73
2017-04-22T02:30:39.512Z,76.82
2017-04-22T02:31:05.593Z,76.64
2017-04-22T02:31:31.676Z,76.54
2017-04-22T02:31:57.783Z,77.2
2017-04-22T02:32:23.888Z,77.2
2017-04-22T02:32:50.014Z,77.3
2017-04-22T02:33:16.119Z,77.64
2017-04-22T02:33:42.261Z,77.36
2017-04-22T02:34:08.366Z,77.17
2017-04-22T02:34:34.448Z,76.31
2017-04-22T02:35:00.575Z,76.12
2017-04-22T02:35:26.682Z,76.5
2017-04-22T02:35:52.782Z,76.88
2017-04-22T02:36:18.912Z,77.74
2017-04-22T02:36:45.019Z,77.17
2017-04-22T02:37:11.119Z,76.79
2017-04-22T02:37:37.225Z,77.17
2017-04-22T02:38:03.354Z,77.64
2017-04-22T02:38:29.460Z,77.45
2017-04-22T02:38:55.586Z,76.31
2017-04-22T02:39:21.693Z,75.36
2017-04-22T02:39:47.778Z,74.98
2017-04-22T02:40:13.884Z,74.98
2017-04-22T02:40:39.994Z,75.16
2017-04-22T02:41:06.098Z,75.26
2017-04-22T02:41:32.204Z,75.16
2017-04-22T02:41:58.285Z,75.26
2017-04-22T02:42:24.387Z,74.88
2017-04-22T02:42:50.471Z,75.07
2017-04-22T02:43:16.574Z,74.98
2017-04-22T02:43:42.659Z,75.07
2017-04-22T02:44:08.788Z,76.03
2017-04-22T02:44:34.867Z,75.74
2017-04-22T02:45:00.948Z,76.03
2017-04-22T02:45:27.054Z,75.84
2017-04-22T02:45:53.156Z,75.64
2017-04-22T02:46:19.237Z,76.21
2017-04-22T02:46:45.314Z,75.74
2017-04-22T02:47:11.396Z,75.93
2017-04-22T02:47:37.522Z,75.07
2017-04-22T02:48:03.626Z,75.16
2017-04-22T02:48:29.745Z,75.16
2017-04-22T02:48:55.874Z,75.26
2017-04-22T02:49:21.983Z,75.45
2017-04-22T02:49:48.088Z,75.16
2017-04-22T02:50:14.170Z,75.07
2017-04-22T02:50:40.274Z,75.26
2017-04-22T02:51:06.379Z,75.07
2017-04-22T02:51:32.506Z,75.16
2017-04-22T02:51:58.650Z,75.16
2017-04-22T02:52:24.831Z,74.6
2017-04-22T02:52:50.912Z,74.98
2017-04-22T02:53:17.065Z,74.31
2017-04-22T02:53:43.218Z,74.88
2017-04-22T02:54:09.391Z,74.31
2017-04-22T02:54:35.473Z,74.6
2017-04-22T02:55:01.626Z,74.31
2017-04-22T02:55:27.708Z,74.21
2017-04-22T02:55:53.814Z,74.5
2017-04-22T02:56:19.917Z,74.31
2017-04-22T02:56:45.998Z,74.5
2017-04-22T02:57:12.104Z,73.93
2017-04-22T02:57:38.281Z,74.02
2017-04-22T02:58:04.409Z,73.74
2017-04-22T02:58:30.535Z,73.55
2017-04-22T02:58:56.637Z,73.55
2017-04-22T02:59:22.772Z,73.65
2017-04-22T02:59:48.876Z,73.65
2017-04-22T03:00:14.955Z,74.12
2017-04-22T03:00:41.039Z,74.5
2017-04-22T03:01:07.118Z,74.31
2017-04-22T03:01:33.203Z,73.74
2017-04-22T03:01:59.289Z,73.65
2017-04-22T03:02:25.397Z,73.74
2017-04-22T03:02:51.547Z,74.31
2017-04-22T03:03:17.678Z,74.31
2017-04-22T03:03:43.762Z,74.31
2017-04-22T03:04:09.846Z,74.5
2017-04-22T03:04:35.971Z,74.4
2017-04-22T03:05:02.075Z,74.4
2017-04-22T03:05:28.156Z,74.31
2017-04-22T03:05:54.263Z,74.21
2017-04-22T03:06:20.369Z,74.5
2017-04-22T03:06:46.520Z,74.5
2017-04-22T03:07:12.626Z,74.88
2017-04-22T03:07:38.755Z,75.16
2017-04-22T03:08:04.879Z,74.98
2017-04-22T03:08:31.031Z,74.98
2017-04-22T03:08:57.306Z,75.16
2017-04-22T03:09:23.437Z,75.16
2017-04-22T03:09:49.561Z,74.98
2017-04-22T03:10:15.828Z,75.16
2017-04-22T03:10:41.910Z,74.88
2017-04-22T03:11:08.014Z,75.45
2017-04-22T03:11:34.129Z,76.03
2017-04-22T03:12:00.235Z,75.93
2017-04-22T03:12:26.339Z,75.74
2017-04-22T03:12:52.491Z,76.12
2017-04-22T03:13:18.574Z,76.21
2017-04-22T03:13:44.725Z,76.31
2017-04-22T03:14:10.830Z,76.31
2017-04-22T03:14:36.937Z,76.31
2017-04-22T03:15:03.017Z,76.4
2017-04-22T03:15:29.123Z,76.03
2017-04-22T03:15:55.205Z,76.03
2017-04-22T03:16:21.288Z,76.5
2017-04-22T03:16:47.371Z,76.31
2017-04-22T03:17:13.451Z,76.4
2017-04-22T03:17:39.556Z,77.17
2017-04-22T03:18:05.662Z,76.59
2017-04-22T03:18:31.742Z,76.98
2017-04-22T03:18:57.873Z,76.98
2017-04-22T03:19:23.988Z,77.07
2017-04-22T03:19:50.112Z,76.88
2017-04-22T03:20:16.234Z,76.98
2017-04-22T03:20:42.316Z,76.79
2017-04-22T03:21:08.419Z,77.17
2017-04-22T03:21:34.513Z,77.26
2017-04-22T03:22:00.597Z,76.98
2017-04-22T03:22:26.701Z,76.79
2017-04-22T03:22:52.806Z,76.69
2017-04-22T03:23:18.908Z,76.5
2017-04-22T03:23:45.017Z,77.17
2017-04-22T03:24:11.143Z,77.07
2017-04-22T03:24:37.246Z,77.17
2017-04-22T03:25:03.552Z,77.74
2017-04-22T03:25:29.635Z,77.26
2017-04-22T03:25:55.738Z,77.17
2017-04-22T03:26:21.842Z,77.17
2017-04-22T03:26:47.925Z,77.55
2017-04-22T03:27:14.032Z,77.64
2017-04-22T03:27:40.114Z,77.45
2017-04-22T03:28:06.242Z,77.83
2017-04-22T03:28:32.417Z,77.55
2017-04-22T03:28:58.526Z,77.64
2017-04-22T03:29:24.678Z,77.83
2017-04-22T03:29:50.785Z,77.64
2017-04-22T03:30:16.868Z,77.83
2017-04-22T03:30:43.025Z,77.55
2017-04-22T03:31:09.188Z,77.83
2017-04-22T03:31:35.269Z,77.55
2017-04-22T03:32:01.349Z,77.83
2017-04-22T03:32:27.476Z,77.93
2017-04-22T03:32:53.585Z,78.03
2017-04-22T03:33:19.737Z,78.03
2017-04-22T03:33:45.819Z,78.41
2017-04-22T03:34:11.949Z,78.22
2017-04-22T03:34:38.101Z,78.41
2017-04-22T03:35:04.230Z,78.41
2017-04-22T03:35:30.337Z,78.12
2017-04-22T03:35:56.441Z,78.03
2017-04-22T03:36:22.598Z,77.93
2017-04-22T03:36:48.703Z,78.12
2017-04-22T03:37:14.807Z,78.03
2017-04-22T03:37:40.890Z,78.22
2017-04-22T03:38:06.996Z,78.03
2017-04-22T03:38:33.077Z,78.12
2017-04-22T03:38:59.185Z,77.93
2017-04-22T03:39:25.290Z,78.03
2017-04-22T03:39:51.420Z,78.41
2017-04-22T03:40:17.524Z,78.22
2017-04-22T03:40:43.627Z,78.31
2017-04-22T03:41:09.732Z,78.22
2017-04-22T03:41:35.813Z,77.83
2017-04-22T03:42:01.896Z,77.45
2017-04-22T03:42:28.001Z,77.45
2017-04-22T03:42:54.108Z,77.64
2017-04-22T03:43:20.262Z,77.64
2017-04-22T03:43:46.370Z,77.93
2017-04-22T03:44:12.474Z,78.12
2017-04-22T03:44:38.579Z,78.78
2017-04-22T03:45:04.700Z,78.5
2017-04-22T03:45:30.765Z,78.59
2017-04-22T03:45:56.890Z,78.78
2017-04-22T03:46:22.995Z,78.5
2017-04-22T03:46:49.296Z,78.59
2017-04-22T03:47:15.398Z,78.78
2017-04-22T03:47:41.481Z,78.5
2017-04-22T03:48:07.563Z,78.03
2017-04-22T03:48:33.714Z,78.69
2017-04-22T03:48:59.843Z,78.69
2017-04-22T03:49:25.950Z,78.78
2017-04-22T03:49:52.055Z,78.22
2017-04-22T03:50:18.184Z,78.31
2017-04-22T03:50:44.289Z,77.83
2017-04-22T03:51:10.416Z,77.45
2017-04-22T03:51:36.519Z,78.41
2017-04-22T03:52:02.599Z,78.22
2017-04-22T03:52:28.681Z,78.22
2017-04-22T03:52:54.763Z,78.41
2017-04-22T03:53:20.845Z,78.31
2017-04-22T03:53:46.926Z,78.31
2017-04-22T03:54:13.005Z,78.5
2017-04-22T03:54:39.110Z,78.03
2017-04-22T03:55:05.213Z,78.59
2017-04-22T03:55:31.317Z,78.59
2017-04-22T03:55:57.417Z,78.41
2017-04-22T03:56:23.501Z,78.41
2017-04-22T03:56:49.607Z,78.69
2017-04-22T03:57:15.713Z,77.93
2017-04-22T03:57:41.818Z,78.31
2017-04-22T03:58:07.899Z,78.12
2017-04-22T03:58:33.982Z,78.22
2017-04-22T03:59:00.063Z,78.41
2017-04-22T03:59:26.199Z,78.41
2017-04-22T03:59:52.325Z,78.41
2017-04-22T04:00:18.409Z,78.31
2017-04-22T04:00:44.835Z,78.12
2017-04-22T04:01:10.916Z,78.22
2017-04-22T04:01:37.023Z,78.22
2017-04-22T04:02:03.104Z,78.41
2017-04-22T04:02:29.210Z,78.41
2017-04-22T04:02:55.317Z,78.22
2017-04-22T04:03:21.617Z,77.83
2017-04-22T04:03:47.724Z,78.22
2017-04-22T04:04:13.805Z,78.31
2017-04-22T04:04:39.910Z,77.93
2017-04-22T04:05:05.994Z,78.12
2017-04-22T04:05:32.072Z,77.93
2017-04-22T04:05:58.172Z,78.12
2017-04-22T04:06:24.277Z,77.93
2017-04-22T04:06:50.357Z,78.22
2017-04-22T04:07:16.438Z,77.64
2017-04-22T04:07:42.547Z,77.83
2017-04-22T04:08:08.704Z,78.31
2017-04-22T04:08:34.808Z,78.12
2017-04-22T04:09:00.959Z,78.78
2017-04-22T04:09:27.065Z,78.59
2017-04-22T04:09:53.193Z,78.69
2017-04-22T04:10:19.274Z,77.93
2017-04-22T04:10:45.355Z,78.22
2017-04-22T04:11:11.480Z,77.93
2017-04-22T04:11:37.562Z,77.93
2017-04-22T04:12:03.691Z,78.41
2017-04-22T04:12:29.790Z,78.41
2017-04-22T04:12:55.897Z,78.03
2017-04-22T04:13:22.021Z,78.41
2017-04-22T04:13:48.130Z,78.31
2017-04-22T04:14:14.212Z,78.31
2017-04-22T04:14:40.293Z,78.31
2017-04-22T04:15:06.392Z,78.56
2017-04-22T04:15:32.475Z,77.98
2017-04-22T04:15:58.559Z,78.65
2017-04-22T04:16:24.666Z,78.56
2017-04-22T04:16:50.745Z,78.46
2017-04-22T04:17:16.826Z,78.85
2017-04-22T04:17:42.905Z,78.46
2017-04-22T04:18:08.989Z,78.56
2017-04-22T04:18:35.070Z,78.78
2017-04-22T04:19:01.152Z,78.75
2017-04-22T04:19:27.257Z,78.85
2017-04-22T04:19:53.340Z,78.65
2017-04-22T04:20:19.413Z,78.46
2017-04-22T04:20:45.519Z,78.75
2017-04-22T04:21:11.625Z,78.75
2017-04-22T04:21:37.728Z,78.78
2017-04-22T04:22:03.837Z,78.56
2017-04-22T04:22:29.943Z,78.37
2017-04-22T04:22:56.027Z,78.59
2017-04-22T04:23:22.108Z,78.41
2017-04-22T04:23:48.233Z,78.08
2017-04-22T04:24:14.315Z,77.8
2017-04-22T04:24:40.401Z,78.17
2017-04-22T04:25:06.484Z,77.98
2017-04-22T04:25:32.588Z,78.37
2017-04-22T04:25:58.716Z,77.98
2017-04-22T04:26:24.794Z,77.8
2017-04-22T04:26:51.158Z,77.61
2017-04-22T04:27:17.240Z,77.61
2017-04-22T04:27:43.348Z,77.61
2017-04-22T04:28:09.477Z,77.8
2017-04-22T04:28:35.585Z,77.98
2017-04-22T04:29:01.693Z,78.27
2017-04-22T04:29:27.799Z,77.98
2017-04-22T04:29:53.905Z,77.7
2017-04-22T04:30:19.985Z,77.61
2017-04-22T04:30:46.096Z,78.03
2017-04-22T04:31:12.200Z,77.51
2017-04-22T04:31:38.282Z,77.42
2017-04-22T04:32:04.364Z,77.8
2017-04-22T04:32:30.444Z,77.42
2017-04-22T04:32:56.523Z,77.7
2017-04-22T04:33:22.726Z,77.32
2017-04-22T04:33:48.806Z,77.8
2017-04-22T04:34:14.889Z,77.51
2017-04-22T04:34:40.992Z,77.61
2017-04-22T04:35:07.120Z,77.8
2017-04-22T04:35:33.225Z,77.51
2017-04-22T04:35:59.327Z,77.61
2017-04-22T04:36:25.407Z,77.42
2017-04-22T04:36:51.534Z,77.51
2017-04-22T04:37:17.639Z,77.32
2017-04-22T04:37:43.742Z,77.22
2017-04-22T04:38:09.843Z,77.55
2017-04-22T04:38:35.925Z,77.7
2017-04-22T04:39:02.028Z,77.51
2017-04-22T04:39:28.114Z,77.55
2017-04-22T04:39:54.265Z,77.64
2017-04-22T04:40:20.350Z,77.64
2017-04-22T04:40:46.430Z,77.36
2017-04-22T04:41:12.532Z,77.45
2017-04-22T04:41:38.635Z,77.07
2017-04-22T04:42:04.719Z,76.79
2017-04-22T04:42:30.838Z,76.69
2017-04-22T04:42:56.966Z,76.79
2017-04-22T04:43:23.048Z,76.79
2017-04-22T04:43:49.153Z,76.98
2017-04-22T04:44:15.236Z,76.69
2017-04-22T04:44:41.318Z,76.59
2017-04-22T04:45:07.528Z,76.75
2017-04-22T04:45:33.609Z,76.69
2017-04-22T04:45:59.689Z,76.56
2017-04-22T04:46:25.773Z,77.07
2017-04-22T04:46:51.900Z,76.88
2017-04-22T04:47:18.084Z,76.4
2017-04-22T04:47:44.214Z,76.4
2017-04-22T04:48:10.295Z,76.69
2017-04-22T04:48:36.376Z,76.79
2017-04-22T04:49:02.481Z,76.21
2017-04-22T04:49:28.584Z,76.98
2017-04-22T04:49:54.663Z,76.98
2017-04-22T04:50:20.742Z,76.59
2017-04-22T04:50:46.826Z,76.88
2017-04-22T04:51:12.906Z,76.21
2017-04-22T04:51:39.013Z,76.4
2017-04-22T04:52:05.099Z,76.12
2017-04-22T04:52:31.204Z,76.4
2017-04-22T04:52:57.287Z,76.12
2017-04-22T04:53:23.368Z,75.93
2017-04-22T04:53:49.494Z,75.74
2017-04-22T04:54:15.619Z,75.84
2017-04-22T04:54:41.725Z,76.03
2017-04-22T04:55:07.806Z,76.12
2017-04-22T04:55:33.888Z,75.93
2017-04-22T04:55:59.970Z,75.55
2017-04-22T04:56:26.052Z,76.03
2017-04-22T04:56:52.134Z,75.74
2017-04-22T04:57:18.215Z,75.36
2017-04-22T04:57:44.319Z,74.98
2017-04-22T04:58:10.399Z,75.93
2017-04-22T04:58:36.484Z,75.93
2017-04-22T04:59:02.587Z,76.12
2017-04-22T04:59:28.666Z,75.55
2017-04-22T04:59:54.749Z,75.36
2017-04-22T05:00:20.855Z,74.88
2017-04-22T05:00:46.937Z,74.88
2017-04-22T05:01:13.043Z,74.88
2017-04-22T05:01:39.123Z,75.07
2017-04-22T05:02:05.204Z,74.88
2017-04-22T05:02:31.306Z,74.98
2017-04-22T05:02:57.411Z,74.79
2017-04-22T05:03:23.515Z,74.79
2017-04-22T05:03:49.621Z,74.31
2017-04-22T05:04:15.702Z,74.69
2017-04-22T05:04:41.786Z,74.6
2017-04-22T05:05:07.913Z,74.69
2017-04-22T05:05:33.998Z,74.5
2017-04-22T05:06:00.079Z,74.5
2017-04-22T05:06:26.159Z,74.6
2017-04-22T05:06:52.265Z,74.4
2017-04-22T05:07:18.415Z,74.6
2017-04-22T05:07:44.545Z,74.69
2017-04-22T05:08:10.652Z,74.4
2017-04-22T05:08:36.757Z,74.69
2017-04-22T05:09:02.840Z,74.12
2017-04-22T05:09:28.922Z,74.6
2017-04-22T05:09:55.005Z,74.12
2017-04-22T05:10:21.088Z,73.83
2017-04-22T05:10:47.168Z,73.65
2017-04-22T05:11:13.273Z,73.93
2017-04-22T05:11:39.356Z,73.55
2017-04-22T05:12:05.459Z,73.55
2017-04-22T05:12:31.541Z,73.65
2017-04-22T05:12:57.622Z,73.74
2017-04-22T05:13:23.726Z,73.93
2017-04-22T05:13:49.806Z,73.45
2017-04-22T05:14:15.914Z,73.17
2017-04-22T05:14:42.039Z,73.36
2017-04-22T05:15:08.122Z,72.97
2017-04-22T05:15:34.230Z,73.17
2017-04-22T05:16:00.337Z,73.07
2017-04-22T05:16:26.465Z,72.88
2017-04-22T05:16:52.545Z,73.45
2017-04-22T05:17:18.626Z,72.78
2017-04-22T05:17:44.707Z,73.17
2017-04-22T05:18:11.176Z,72.78
2017-04-22T05:18:37.390Z,73.17
2017-04-22T05:19:03.495Z,73.26
2017-04-22T05:19:29.601Z,73.07
2017-04-22T05:19:55.683Z,73.26
2017-04-22T05:20:21.783Z,72.88
2017-04-22T05:20:47.865Z,73.07
2017-04-22T05:21:13.948Z,73.07
2017-04-22T05:21:40.052Z,72.5
2017-04-22T05:22:06.156Z,72.41
2017-04-22T05:22:32.283Z,72.41
2017-04-22T05:22:58.388Z,72.5
2017-04-22T05:23:24.519Z,72.5
2017-04-22T05:23:50.932Z,72.5
2017-04-22T05:24:17.039Z,72.53
2017-04-22T05:24:43.168Z,72.6
2017-04-22T05:25:09.272Z,72.31
2017-04-22T05:25:35.358Z,72.6
2017-04-22T05:26:01.461Z,72.5
2017-04-22T05:26:27.549Z,72.31
2017-04-22T05:26:53.625Z,72.41
2017-04-22T05:27:19.731Z,72.06
2017-04-22T05:27:45.810Z,71.58
2017-04-22T05:28:11.917Z,72.06
2017-04-22T05:28:38.217Z,72.16
2017-04-22T05:29:04.296Z,71.68
2017-04-22T05:29:30.675Z,71.77
2017-04-22T05:29:56.780Z,71.96
2017-04-22T05:30:22.866Z,71.96
2017-04-22T05:30:48.972Z,71.2
2017-04-22T05:31:15.077Z,71.01
2017-04-22T05:31:41.204Z,71.36
2017-04-22T05:32:07.263Z,71.3
2017-04-22T05:32:33.431Z,71.96
2017-04-22T05:32:59.560Z,71.77
2017-04-22T05:33:25.646Z,71.36
2017-04-22T05:33:51.726Z,71.39
2017-04-22T05:34:17.829Z,71.01
2017-04-22T05:34:43.911Z,71.39
2017-04-22T05:35:09.995Z,71.87
2017-04-22T05:35:36.100Z,71.58
2017-04-22T05:36:02.204Z,71.11
2017-04-22T05:36:28.329Z,71.2
2017-04-22T05:36:54.411Z,71.11
2017-04-22T05:37:20.515Z,71.3